Strona główna
METAR-TAF:

METAR-TAF

Lotnisko :

Leesburg, Wirginia, Stany Zjednoczone

Szerokość geograficzna: 39-05N, Długość geograficzna: 077-34W, wysokość: 119 m

Aktualna obserwacja pogody

Raport powstał 31 minut temu, godzina 02:15 UTC
Wiatr 8 kt od zachodnio-północny zachód
Temperatura 27°C
Wilgotność 58%
Ciśnienie 1008 hPa
Widzialność: 16.1 km
bezchmurnie

METAR: KJYO 040215Z AUTO 29008KT 10SM CLR 27/18 A2978 RMK AO2

czas: 22:46 (02:46 UTC)


TAF: brakujący

Obserwacja i prognoza pogody dla ponad 4000 lotnisk (raport METAR i TAF).

Dostępne stacje oznaczono żółtymi i czerwonymi punktami na mapie.

Najedź kursorem aby zobaczyć nazwę stacji.

Kliknij aby zobaczyć obserwacje i prognozy pogody.

Aby zmienić mapę: kliknij na zielony przycisk z czarnym krzyżykiem, aby powiększyć; na zielony przycisk z myślnikiem, aby pomniejszyć; na zielone strzałki, aby przejść do map sąsiednich.


METAR-TAF: